createdAt,value
2019-03-27T00:01:11.294Z,8.60
2019-03-27T00:07:56.385Z,8.83
2019-03-27T00:14:41.310Z,9.80
2019-03-27T00:21:27.168Z,8.77
2019-03-27T00:28:12.449Z,8.60
2019-03-27T00:34:57.294Z,8.73
2019-03-27T00:41:42.147Z,7.83
2019-03-27T00:48:27.398Z,7.83
2019-03-27T00:55:12.791Z,8.20
2019-03-27T01:01:57.639Z,7.87
2019-03-27T01:08:42.558Z,8.27
2019-03-27T01:15:39.132Z,8.90
2019-03-27T01:22:15.442Z,8.73
2019-03-27T01:29:00.301Z,8.47
2019-03-27T01:35:45.159Z,9.10
2019-03-27T01:42:30.149Z,8.37
2019-03-27T01:49:14.998Z,9.43
2019-03-27T01:55:59.859Z,8.60
2019-03-27T02:02:44.724Z,9.07
2019-03-27T02:09:29.578Z,10.17
2019-03-27T02:16:14.435Z,8.73
2019-03-27T02:22:59.291Z,10.20
2019-03-27T02:29:44.157Z,11.17
2019-03-27T02:36:29.080Z,10.03
2019-03-27T02:43:13.944Z,10.70
2019-03-27T02:49:58.826Z,10.93
2019-03-27T02:56:43.757Z,9.23
2019-03-27T03:03:29.686Z,9.57
2019-03-27T03:10:15.371Z,10.73
2019-03-27T03:17:00.234Z,11.10
2019-03-27T03:23:45.255Z,11.77
2019-03-27T03:30:30.582Z,11.60
2019-03-27T03:37:16.487Z,11.33
2019-03-27T03:44:01.422Z,12.10
2019-03-27T03:50:46.586Z,12.53
2019-03-27T03:57:31.787Z,11.37
2019-03-27T04:04:18.689Z,13.47
2019-03-27T04:11:03.632Z,12.80
2019-03-27T04:17:48.568Z,12.53
2019-03-27T04:24:33.504Z,11.93
2019-03-27T04:31:18.507Z,13.50
2019-03-27T04:38:03.372Z,12.73
2019-03-27T04:44:48.236Z,12.50
2019-03-27T04:51:33.283Z,13.60
2019-03-27T04:58:18.143Z,13.13
2019-03-27T05:05:03.474Z,13.67
2019-03-27T05:11:49.409Z,14.27
2019-03-27T05:18:34.271Z,13.17
2019-03-27T05:25:19.198Z,13.83
2019-03-27T05:32:04.063Z,13.77
2019-03-27T05:38:48.930Z,14.77
2019-03-27T05:45:33.791Z,12.13
2019-03-27T05:52:18.723Z,13.37
2019-03-27T05:59:03.664Z,13.97
2019-03-27T06:05:48.603Z,14.43
2019-03-27T06:12:33.467Z,14.87
2019-03-27T06:19:18.327Z,14.13
2019-03-27T06:26:03.751Z,16.10
2019-03-27T06:32:48.880Z,15.23
2019-03-27T06:39:33.811Z,16.37
2019-03-27T06:46:18.740Z,15.83
2019-03-27T06:53:03.609Z,16.23
2019-03-27T06:59:48.535Z,15.27
2019-03-27T07:06:33.394Z,15.77
2019-03-27T07:13:18.254Z,15.73
2019-03-27T07:20:04.260Z,17.93
2019-03-27T07:26:49.200Z,16.27
2019-03-27T07:33:34.131Z,16.67
2019-03-27T07:40:19.005Z,17.43
2019-03-27T07:47:04.007Z,17.43
2019-03-27T07:53:48.881Z,15.83
2019-03-27T08:00:33.810Z,16.90
2019-03-27T08:07:26.806Z,20.33
2019-03-27T08:14:05.516Z,17.97
2019-03-27T08:20:50.942Z,18.03
2019-03-27T08:27:35.810Z,17.53
2019-03-27T08:34:20.685Z,16.07
2019-03-27T08:41:05.559Z,16.73
2019-03-27T08:47:50.428Z,16.83
2019-03-27T08:54:35.432Z,16.57
2019-03-27T09:01:20.355Z,14.80
2019-03-27T09:08:05.226Z,15.08
2019-03-27T09:14:50.094Z,17.15
2019-03-27T09:21:34.964Z,13.58
2019-03-27T09:28:19.834Z,14.40
2019-03-27T09:35:05.746Z,13.72
2019-03-27T09:41:50.691Z,13.70
2019-03-27T09:48:35.571Z,15.38
2019-03-27T09:55:20.507Z,13.13
2019-03-27T10:02:05.515Z,12.00
2019-03-27T10:08:50.386Z,9.98
2019-03-27T10:15:35.310Z,8.98
2019-03-27T10:22:20.190Z,9.08
2019-03-27T10:29:05.125Z,10.13
2019-03-27T10:35:50.276Z,8.68
2019-03-27T10:42:35.235Z,9.50
2019-03-27T10:49:21.172Z,8.93
2019-03-27T10:56:06.040Z,8.33
2019-03-27T11:02:50.911Z,7.20
2019-03-27T11:09:35.799Z,7.70
2019-03-27T11:16:20.675Z,7.75
2019-03-27T11:23:06.014Z,6.63
2019-03-27T11:29:50.884Z,6.50
2019-03-27T11:36:37.506Z,6.87
2019-03-27T11:43:24.673Z,6.57
2019-03-27T11:50:10.314Z,5.43
2019-03-27T11:56:55.237Z,7.83
2019-03-27T12:03:41.644Z,8.50
2019-03-27T12:10:26.813Z,6.20
2019-03-27T12:17:11.969Z,5.40
2019-03-27T12:23:58.566Z,6.23
2019-03-27T12:30:44.499Z,6.67
2019-03-27T12:37:29.350Z,6.70
2019-03-27T12:44:15.240Z,6.63
2019-03-27T12:51:11.974Z,6.07
2019-03-27T12:57:47.019Z,5.10
2019-03-27T13:04:31.880Z,4.60
2019-03-27T13:11:16.731Z,5.13
2019-03-27T13:18:01.832Z,4.70
2019-03-27T13:24:46.700Z,4.70
2019-03-27T13:31:31.572Z,4.80
2019-03-27T13:38:16.986Z,4.37
2019-03-27T13:45:02.208Z,4.60
2019-03-27T13:51:47.208Z,5.13
2019-03-27T13:58:32.067Z,5.00
2019-03-27T14:05:17.601Z,6.07
2019-03-27T14:12:03.034Z,5.13
2019-03-27T14:18:49.059Z,6.00
2019-03-27T14:25:34.643Z,4.87
2019-03-27T14:32:19.511Z,4.80
2019-03-27T14:39:06.109Z,5.17
2019-03-27T14:45:51.026Z,4.10
2019-03-27T14:52:35.891Z,5.07
2019-03-27T14:59:20.748Z,3.83
2019-03-27T15:06:06.023Z,4.40
2019-03-27T15:12:51.109Z,5.00
2019-03-27T15:19:36.104Z,3.37
2019-03-27T15:26:21.207Z,4.47
2019-03-27T15:33:06.062Z,4.33
2019-03-27T15:39:51.213Z,3.63
2019-03-27T15:46:36.215Z,3.40
2019-03-27T15:53:21.347Z,3.33
2019-03-27T16:00:07.586Z,3.37
2019-03-27T16:06:53.148Z,2.87
2019-03-27T16:13:38.486Z,2.60
2019-03-27T16:20:23.725Z,3.50
2019-03-27T16:27:09.006Z,3.00
2019-03-27T16:33:55.007Z,2.60
2019-03-27T16:40:44.519Z,3.27
2019-03-27T16:47:29.587Z,2.63
2019-03-27T16:54:14.598Z,3.13
2019-03-27T17:01:01.364Z,2.67
2019-03-27T17:07:46.391Z,2.83
2019-03-27T17:14:31.268Z,2.87
2019-03-27T17:21:16.163Z,2.90
2019-03-27T17:28:03.029Z,2.67
2019-03-27T17:34:47.958Z,2.73
2019-03-27T17:41:32.819Z,4.17
2019-03-27T17:48:18.913Z,2.33
2019-03-27T17:55:06.157Z,4.43
2019-03-27T18:01:51.084Z,3.20
2019-03-27T18:08:36.030Z,3.10
2019-03-27T18:15:21.227Z,2.97
2019-03-27T18:22:07.873Z,5.13
2019-03-27T18:28:52.972Z,3.47
2019-03-27T18:35:37.822Z,3.53
2019-03-27T18:42:22.687Z,4.50
2019-03-27T18:49:10.272Z,3.70
2019-03-27T18:55:54.161Z,4.10
2019-03-27T19:02:39.175Z,3.70
2019-03-27T19:09:26.208Z,4.67
2019-03-27T19:16:11.362Z,4.03
2019-03-27T19:22:56.235Z,4.13
2019-03-27T19:29:41.078Z,4.57
2019-03-27T19:36:27.751Z,3.90
2019-03-27T19:43:14.508Z,4.40
2019-03-27T19:49:59.464Z,4.97
2019-03-27T19:56:44.767Z,5.70
2019-03-27T20:03:30.002Z,4.80
2019-03-27T20:10:15.371Z,5.20
2019-03-27T20:17:00.359Z,4.90
2019-03-27T20:23:45.453Z,5.27
2019-03-27T20:30:30.519Z,4.40
2019-03-27T20:37:15.434Z,5.13
2019-03-27T20:44:00.640Z,6.73
2019-03-27T20:50:46.535Z,6.57
2019-03-27T20:57:31.600Z,7.07
2019-03-27T21:04:16.463Z,7.43
2019-03-27T21:11:01.441Z,7.53
2019-03-27T21:17:46.558Z,6.10
2019-03-27T21:24:31.538Z,6.27
2019-03-27T21:31:16.423Z,5.17
2019-03-27T21:38:01.836Z,6.50
2019-03-27T21:44:47.215Z,7.00
2019-03-27T21:51:32.067Z,6.03
2019-03-27T21:58:16.932Z,5.57
2019-03-27T22:05:02.238Z,6.10
2019-03-27T22:11:47.278Z,6.20
2019-03-27T22:18:32.153Z,5.87
2019-03-27T22:25:17.062Z,5.97
2019-03-27T22:32:01.914Z,6.47
2019-03-27T22:38:47.595Z,6.40
2019-03-27T22:45:33.719Z,6.83
2019-03-27T22:52:18.711Z,6.80
2019-03-27T22:59:03.800Z,6.23
2019-03-27T23:05:49.640Z,6.03
2019-03-27T23:12:34.776Z,7.03
2019-03-27T23:19:20.580Z,7.03
2019-03-27T23:26:06.904Z,6.93
2019-03-27T23:32:51.862Z,6.63
2019-03-27T23:39:36.711Z,6.87
2019-03-27T23:46:23.007Z,6.53
2019-03-27T23:53:08.025Z,7.60
2019-03-27T23:59:52.993Z,7.50
